METAR Data
IDs: Format: Raw Decoded Include TAF

Data at: 1346 UTC 26 Feb 2021

KMKC 261254Z 06005KT 10SM FEW100 M01/M06 A3005 RMK AO2 SLP180 T10061056